createdAt,value
2018-05-29T08:41:26.728Z,45.00
2018-05-29T08:43:54.179Z,45.30
2018-05-29T08:46:22.648Z,45.70
2018-05-29T08:48:50.098Z,45.40
2018-05-29T08:51:17.590Z,44.10
2018-05-29T08:53:45.038Z,42.70
2018-05-29T08:56:12.512Z,41.10
2018-05-29T08:58:39.979Z,39.80
2018-05-29T09:01:08.346Z,40.70
2018-05-29T09:03:35.800Z,42.10
2018-05-29T09:06:03.262Z,41.90
2018-05-29T09:08:30.725Z,44.00
2018-05-29T09:10:58.173Z,43.00
2018-05-29T09:13:25.641Z,43.40
2018-05-29T09:15:53.082Z,43.10
2018-05-29T09:18:20.545Z,42.80
2018-05-29T09:20:48.009Z,41.70
2018-05-29T09:23:15.509Z,39.60
2018-05-29T09:25:43.724Z,41.00
2018-05-29T09:28:11.183Z,41.60
2018-05-29T09:30:38.627Z,43.40
2018-05-29T09:33:06.093Z,43.40
2018-05-29T09:35:33.556Z,43.40
2018-05-29T09:38:00.992Z,44.90
2018-05-29T09:40:28.436Z,44.90
2018-05-29T09:42:55.886Z,45.30
2018-05-29T09:45:23.339Z,45.90
2018-05-29T09:47:51.570Z,49.50
2018-05-29T09:50:19.013Z,49.30
2018-05-29T09:52:46.470Z,49.30
2018-05-29T09:55:13.913Z,49.70
2018-05-29T09:57:41.368Z,49.90
2018-05-29T10:00:08.816Z,49.30
2018-05-29T10:02:36.274Z,48.10
2018-05-29T10:05:03.720Z,48.60
2018-05-29T10:07:31.215Z,49.10
2018-05-29T10:09:58.773Z,49.80
2018-05-29T10:12:26.089Z,50.40
2018-05-29T10:14:53.536Z,50.10
2018-05-29T10:17:22.681Z,49.00
2018-05-29T10:19:50.948Z,49.30
2018-05-29T10:22:18.407Z,49.30
2018-05-29T10:24:45.857Z,49.10
2018-05-29T10:27:13.312Z,49.00
2018-05-29T10:29:40.754Z,48.10
2018-05-29T10:32:08.219Z,48.30
2018-05-29T10:34:35.667Z,49.40
2018-05-29T10:37:03.124Z,50.10
2018-05-29T10:39:30.564Z,52.90
2018-05-29T10:41:58.805Z,52.60
2018-05-29T10:44:26.252Z,52.60
2018-05-29T10:46:53.707Z,53.70
2018-05-29T10:49:21.153Z,53.30
2018-05-29T10:51:48.616Z,52.70
2018-05-29T10:54:16.834Z,51.60
2018-05-29T10:56:45.057Z,50.20
2018-05-29T10:59:12.520Z,50.20
2018-05-29T11:01:39.954Z,49.50
2018-05-29T11:04:07.400Z,46.60
2018-05-29T11:06:34.848Z,44.70
2018-05-29T11:09:02.326Z,44.30
2018-05-29T11:11:29.769Z,44.00
2018-05-29T11:13:57.245Z,41.60
2018-05-29T11:16:24.700Z,40.90
2018-05-29T11:18:52.924Z,41.50
2018-05-29T11:21:27.344Z,41.60
2018-05-29T11:23:54.805Z,39.50
2018-05-29T11:26:22.267Z,38.60
2018-05-29T11:28:49.725Z,38.00
2018-05-29T11:31:17.986Z,38.10
2018-05-29T11:33:45.404Z,37.70
2018-05-29T11:36:12.856Z,37.60
2018-05-29T11:38:40.381Z,35.10
2018-05-29T11:41:07.842Z,37.40
2018-05-29T11:43:36.091Z,36.60
2018-05-29T11:46:03.535Z,36.50
2018-05-29T11:48:31.010Z,36.90
2018-05-29T11:50:58.502Z,39.00
2018-05-29T11:53:25.957Z,40.20
2018-05-29T11:55:53.404Z,43.00
2018-05-29T11:58:21.631Z,46.40
2018-05-29T12:00:49.088Z,46.40
2018-05-29T12:03:16.567Z,46.40
2018-05-29T12:05:44.018Z,46.20
2018-05-29T12:08:11.485Z,44.90
2018-05-29T12:10:38.928Z,44.20
2018-05-29T12:13:06.389Z,42.20
2018-05-29T12:15:33.837Z,41.30
2018-05-29T12:18:01.300Z,39.30
2018-05-29T12:20:28.760Z,39.80
2018-05-29T12:22:56.229Z,39.60
2018-05-29T12:25:23.674Z,42.20
2018-05-29T12:27:51.226Z,41.50
2018-05-29T12:30:18.668Z,41.50
2018-05-29T12:32:46.128Z,44.00
2018-05-29T12:35:13.581Z,45.10
2018-05-29T12:37:41.046Z,44.70
2018-05-29T12:40:08.493Z,43.60
2018-05-29T12:42:35.951Z,44.80
2018-05-29T12:45:03.428Z,43.60
2018-05-29T12:47:30.896Z,42.50
2018-05-29T12:49:58.351Z,43.00
2018-05-29T12:52:25.801Z,43.60
2018-05-29T12:54:53.261Z,42.60
2018-05-29T12:57:20.729Z,42.80
2018-05-29T12:59:49.083Z,43.90
2018-05-29T13:02:16.536Z,43.90
2018-05-29T13:04:44.002Z,44.60
2018-05-29T13:07:11.444Z,45.00
2018-05-29T13:09:38.897Z,45.00
2018-05-29T13:12:06.354Z,45.30
2018-05-29T13:14:33.803Z,42.90
2018-05-29T13:17:01.251Z,43.00
2018-05-29T13:19:28.709Z,45.50
2018-05-29T13:21:56.156Z,45.50
2018-05-29T13:24:23.624Z,44.70
2018-05-29T13:26:51.084Z,46.50
2018-05-29T13:29:18.548Z,46.60
2018-05-29T13:31:45.991Z,47.20
2018-05-29T13:34:13.457Z,48.00
2018-05-29T13:36:40.905Z,48.70
2018-05-29T13:39:08.384Z,50.20
2018-05-29T13:41:35.964Z,48.80
2018-05-29T13:44:03.421Z,48.20
2018-05-29T13:46:30.866Z,48.10
2018-05-29T13:48:58.316Z,46.10
2018-05-29T13:51:26.676Z,46.50
2018-05-29T13:53:54.909Z,44.80
2018-05-29T13:56:22.370Z,44.60
2018-05-29T13:58:50.605Z,40.80
2018-05-29T14:01:18.050Z,40.70
2018-05-29T14:03:45.524Z,39.20
2018-05-29T14:06:12.968Z,35.30
2018-05-29T14:08:40.442Z,35.80
2018-05-29T14:11:07.885Z,36.20
2018-05-29T14:13:35.344Z,33.50
2018-05-29T14:16:04.728Z,32.30
2018-05-29T14:18:32.184Z,30.90
2018-05-29T14:21:00.308Z,31.90
2018-05-29T14:23:28.118Z,31.10
2018-05-29T14:25:55.615Z,29.60
2018-05-29T14:28:23.164Z,30.80
2018-05-29T14:30:50.631Z,31.40
2018-05-29T14:33:18.110Z,31.00
2018-05-29T14:35:46.479Z,31.20
2018-05-29T14:38:14.826Z,29.70
2018-05-29T14:40:42.288Z,29.70
2018-05-29T15:50:17.723Z,37.10
2018-05-29T15:52:46.283Z,39.10
2018-05-29T15:55:14.536Z,39.40
2018-05-29T15:57:42.013Z,39.30
2018-05-29T16:00:09.470Z,39.70
2018-05-29T16:02:36.927Z,39.90
2018-05-29T16:05:04.422Z,40.90
2018-05-29T16:07:31.872Z,39.20
2018-05-29T16:10:00.104Z,40.20
2018-05-29T16:12:27.562Z,39.60
2018-05-29T16:14:55.021Z,38.40
2018-05-29T16:17:22.477Z,40.40
2018-05-29T16:19:50.578Z,40.20
2018-05-29T16:22:18.811Z,39.50
2018-05-29T16:24:46.285Z,39.50
2018-05-29T16:27:13.743Z,39.50
2018-05-29T16:29:41.209Z,41.30
2018-05-29T16:32:08.683Z,42.70
2018-05-29T16:34:36.904Z,43.70
2018-05-29T16:37:04.364Z,43.30
2018-05-29T16:39:31.813Z,43.20
2018-05-29T16:41:59.284Z,44.80
2018-05-29T16:44:26.742Z,45.90
2018-05-29T16:46:54.216Z,45.60
2018-05-29T16:49:21.668Z,45.40
2018-05-29T16:51:49.147Z,46.40
2018-05-29T16:54:16.602Z,46.40
2018-05-29T16:56:44.060Z,46.50
2018-05-29T16:59:11.513Z,46.80
2018-05-29T17:01:38.990Z,48.10
2018-05-29T17:04:07.286Z,49.10
2018-05-29T17:06:35.513Z,50.00
2018-05-29T17:09:02.972Z,49.90
2018-05-29T17:11:30.434Z,49.70
2018-05-29T17:13:57.897Z,50.50
2018-05-29T17:16:25.352Z,50.40
2018-05-29T17:18:52.806Z,50.70
2018-05-29T17:21:20.257Z,50.80
2018-05-29T17:23:47.914Z,50.90
2018-05-29T17:26:15.390Z,50.70
2018-05-29T17:28:42.848Z,50.50
2018-05-29T17:31:10.314Z,50.00
2018-05-29T17:33:38.540Z,50.20
2018-05-29T17:36:06.842Z,51.10
2018-05-29T17:38:35.121Z,51.10
2018-05-29T17:41:04.063Z,51.10
2018-05-29T17:43:31.796Z,50.40
2018-05-29T17:46:01.055Z,51.10
2018-05-29T17:48:28.752Z,51.70
2018-05-29T17:50:57.585Z,51.70
2018-05-29T17:53:28.829Z,51.70
2018-05-29T17:55:58.206Z,51.90
2018-05-29T17:58:27.043Z,53.20
2018-05-29T18:00:56.401Z,52.90
2018-05-29T18:03:24.298Z,52.30
2018-05-29T18:05:51.793Z,52.70
2018-05-29T18:08:19.313Z,52.00
2018-05-29T18:10:46.854Z,51.70
2018-05-29T18:13:15.549Z,52.20
2018-05-29T18:15:44.079Z,52.00
2018-05-29T18:18:12.613Z,52.80
2018-05-29T18:20:40.154Z,52.80
2018-05-29T18:23:07.698Z,53.20
2018-05-29T18:25:35.948Z,54.20
2018-05-29T18:28:03.584Z,54.20
2018-05-29T18:30:31.039Z,54.80
2018-05-29T18:32:59.295Z,54.50
2018-05-29T18:35:26.768Z,54.50
2018-05-29T18:37:54.255Z,54.90
2018-05-29T18:40:22.421Z,54.90
2018-05-29T18:42:50.088Z,54.90
2018-05-29T18:45:17.567Z,55.00
2018-05-29T18:47:45.030Z,55.50
2018-05-29T18:50:13.359Z,56.00
2018-05-29T18:52:40.779Z,55.90
2018-05-29T18:55:09.321Z,57.30
2018-05-29T18:57:37.622Z,58.50
2018-05-29T19:00:05.073Z,57.90
2018-05-29T19:02:32.541Z,58.50
2018-05-29T19:05:00.769Z,60.00
2018-05-29T19:07:28.269Z,59.90
2018-05-29T19:09:55.774Z,60.70
2018-05-29T19:12:23.177Z,61.80
2018-05-29T19:14:50.682Z,62.90
2018-05-29T19:17:18.155Z,62.80
2018-05-29T19:19:45.632Z,63.20
2018-05-29T19:22:13.106Z,63.30
2018-05-29T19:24:40.569Z,63.70
2018-05-29T19:27:08.038Z,63.90
2018-05-29T19:29:36.294Z,64.20
2018-05-29T19:32:03.765Z,64.20
2018-05-29T19:34:31.997Z,64.70
2018-05-29T19:36:59.464Z,64.70
2018-05-29T19:39:26.929Z,64.50
2018-05-29T19:41:54.624Z,65.00
2018-05-29T19:44:22.844Z,65.60
2018-05-29T19:46:50.341Z,65.60
2018-05-29T19:49:17.828Z,66.10
2018-05-29T19:51:45.437Z,65.90
2018-05-29T19:54:12.916Z,65.50
2018-05-29T19:56:40.548Z,65.10
2018-05-29T19:59:08.008Z,64.80
2018-05-29T20:01:35.489Z,65.10
2018-05-29T20:04:02.954Z,65.10
2018-05-29T20:06:30.399Z,64.80
2018-05-29T20:08:57.861Z,65.20
2018-05-29T20:11:25.313Z,65.20
2018-05-29T20:13:52.782Z,65.80
2018-05-29T20:16:20.995Z,65.70
2018-05-29T20:18:48.442Z,65.80
2018-05-29T20:21:15.884Z,66.40
2018-05-29T20:23:44.104Z,66.90
2018-05-29T20:26:11.549Z,66.90
2018-05-29T20:28:38.988Z,67.90
2018-05-29T20:31:06.433Z,69.00
2018-05-29T20:33:34.647Z,70.60
2018-05-29T20:36:02.088Z,70.40
2018-05-29T20:38:29.527Z,71.00
2018-05-29T20:40:56.967Z,71.30
2018-05-29T20:43:25.190Z,71.80
2018-05-29T20:45:52.630Z,71.70
2018-05-29T20:48:20.086Z,72.10
2018-05-29T20:50:47.518Z,72.70
2018-05-29T20:53:14.976Z,73.80
2018-05-29T20:55:43.191Z,75.20
2018-05-29T20:58:10.630Z,75.20
2018-05-29T21:00:38.094Z,75.80
2018-05-29T21:03:05.549Z,77.80
2018-05-29T21:05:33.013Z,79.60
2018-05-29T21:08:00.439Z,82.20
2018-05-29T21:10:27.891Z,83.80
2018-05-29T21:12:56.094Z,84.70
2018-05-29T21:15:23.550Z,84.70
2018-05-29T21:17:50.991Z,85.10
2018-05-29T21:20:18.445Z,87.30
2018-05-29T21:22:45.884Z,89.30
2018-05-29T21:25:14.103Z,90.50
2018-05-29T21:27:41.548Z,90.50
